createdAt,value
2019-03-28T00:01:51.820Z,21.73
2019-03-28T00:04:23.076Z,24.43
2019-03-28T00:06:54.293Z,22.87
2019-03-28T00:09:25.487Z,23.65
2019-03-28T00:11:57.107Z,21.62
2019-03-28T00:14:29.114Z,23.35
2019-03-28T00:17:00.346Z,21.95
2019-03-28T00:19:31.531Z,22.80
2019-03-28T00:22:05.528Z,22.73
2019-03-28T00:24:57.394Z,24.57
2019-03-28T00:27:28.984Z,23.15
2019-03-28T00:30:00.042Z,23.30
2019-03-28T00:32:31.305Z,22.45
2019-03-28T00:35:02.550Z,24.43
2019-03-28T00:37:33.716Z,22.73
2019-03-28T00:40:05.267Z,25.08
2019-03-28T00:42:36.573Z,22.90
2019-03-28T00:45:08.703Z,23.98
2019-03-28T00:47:39.888Z,24.23
2019-03-28T00:50:11.781Z,24.85
2019-03-28T00:52:43.037Z,23.22
2019-03-28T00:55:14.620Z,24.65
2019-03-28T00:57:45.841Z,24.43
2019-03-28T01:00:17.928Z,23.50
2019-03-28T01:02:49.139Z,24.67
2019-03-28T01:05:20.275Z,24.75
2019-03-28T01:07:51.616Z,24.98
2019-03-28T01:10:22.862Z,25.27
2019-03-28T01:12:54.078Z,24.05
2019-03-28T01:15:25.289Z,26.37
2019-03-28T01:17:56.518Z,26.57
2019-03-28T01:20:28.012Z,24.02
2019-03-28T01:22:59.190Z,24.85
2019-03-28T01:25:30.314Z,25.55
2019-03-28T01:28:01.457Z,26.07
2019-03-28T01:30:33.044Z,26.07
2019-03-28T01:33:04.283Z,24.98
2019-03-28T01:35:35.586Z,26.30
2019-03-28T01:38:06.776Z,25.85
2019-03-28T01:40:38.340Z,23.45
2019-03-28T01:43:09.468Z,24.45
2019-03-28T01:45:40.678Z,22.70
2019-03-28T01:48:13.096Z,22.75
2019-03-28T01:50:44.330Z,25.17
2019-03-28T01:53:15.635Z,25.00
2019-03-28T01:55:46.927Z,24.65
2019-03-28T01:58:18.172Z,25.12
2019-03-28T02:00:49.315Z,25.05
2019-03-28T02:03:20.561Z,24.85
2019-03-28T02:05:51.671Z,23.65
2019-03-28T02:08:24.853Z,26.23
2019-03-28T02:10:55.886Z,27.07
2019-03-28T02:13:27.296Z,24.02
2019-03-28T02:15:58.552Z,24.72
2019-03-28T02:18:30.302Z,24.52
2019-03-28T02:21:01.490Z,25.17
2019-03-28T02:23:32.784Z,24.60
2019-03-28T02:26:03.959Z,22.90
2019-03-28T02:28:35.276Z,23.32
2019-03-28T02:31:06.399Z,24.18
2019-03-28T02:33:37.652Z,25.50
2019-03-28T02:36:08.932Z,23.73
2019-03-28T02:38:40.151Z,24.52
2019-03-28T02:41:11.378Z,24.87
2019-03-28T02:43:42.844Z,25.50
2019-03-28T02:46:14.095Z,23.60
2019-03-28T02:48:45.350Z,24.00
2019-03-28T02:51:16.597Z,24.50
2019-03-28T02:53:48.191Z,24.65
2019-03-28T02:56:19.437Z,24.23
2019-03-28T02:58:51.027Z,23.60
2019-03-28T03:01:22.260Z,24.20
2019-03-28T03:03:53.481Z,25.30
2019-03-28T03:06:24.651Z,25.65
2019-03-28T03:08:56.002Z,24.10
2019-03-28T03:11:27.237Z,24.65
2019-03-28T03:13:58.369Z,25.08
2019-03-28T03:16:30.049Z,24.95
2019-03-28T03:19:01.533Z,25.08
2019-03-28T03:21:32.758Z,26.17
2019-03-28T03:24:04.029Z,26.10
2019-03-28T03:26:35.622Z,26.33
2019-03-28T03:29:10.115Z,25.15
2019-03-28T03:31:41.326Z,27.85
2019-03-28T03:34:12.630Z,25.60
2019-03-28T03:36:43.965Z,24.80
2019-03-28T03:39:15.314Z,24.85
2019-03-28T03:41:46.603Z,24.65
2019-03-28T03:44:17.759Z,24.80
2019-03-28T03:46:49.041Z,28.27
2019-03-28T03:49:21.726Z,25.12
2019-03-28T03:51:52.886Z,25.83
2019-03-28T03:54:23.980Z,23.90
2019-03-28T03:56:55.465Z,24.20
2019-03-28T03:59:27.052Z,23.18
2019-03-28T04:01:58.349Z,24.30
2019-03-28T04:04:29.546Z,24.72
2019-03-28T04:07:01.394Z,24.75
2019-03-28T04:09:32.548Z,23.15
2019-03-28T04:12:03.833Z,23.52
2019-03-28T04:14:35.375Z,24.50
2019-03-28T04:17:07.174Z,24.50
2019-03-28T04:19:38.396Z,23.45
2019-03-28T04:22:10.080Z,24.25
2019-03-28T04:24:41.658Z,25.25
2019-03-28T04:27:12.924Z,24.25
2019-03-28T04:29:44.048Z,22.62
2019-03-28T04:32:15.242Z,26.12
2019-03-28T04:34:46.365Z,25.85
2019-03-28T04:37:17.442Z,24.90
2019-03-28T04:39:48.604Z,24.00
2019-03-28T04:42:19.753Z,24.75
2019-03-28T04:44:51.107Z,24.37
2019-03-28T04:47:22.332Z,23.77
2019-03-28T04:49:53.523Z,24.45
2019-03-28T04:52:24.800Z,24.10
2019-03-28T04:54:56.033Z,24.27
2019-03-28T04:57:27.269Z,24.63
2019-03-28T04:59:58.539Z,22.87
2019-03-28T05:02:29.781Z,25.32
2019-03-28T05:05:01.073Z,24.63
2019-03-28T05:07:32.203Z,23.70
2019-03-28T05:10:03.551Z,25.10
2019-03-28T05:12:34.801Z,25.00
2019-03-28T05:15:07.393Z,24.23
2019-03-28T05:17:38.592Z,25.08
2019-03-28T05:20:13.059Z,25.82
2019-03-28T05:22:43.056Z,24.35
2019-03-28T05:25:14.540Z,25.15
2019-03-28T05:27:45.748Z,24.32
2019-03-28T05:30:17.573Z,25.97
2019-03-28T05:32:48.993Z,25.37
2019-03-28T05:35:20.579Z,24.82
2019-03-28T05:37:51.835Z,23.77
2019-03-28T05:40:23.092Z,24.47
2019-03-28T05:42:54.451Z,26.52
2019-03-28T05:45:25.746Z,22.98
2019-03-28T05:48:00.090Z,24.70
2019-03-28T05:50:30.229Z,24.98
2019-03-28T05:53:01.425Z,24.10
2019-03-28T05:55:32.635Z,25.10
2019-03-28T05:58:04.212Z,24.23
2019-03-28T06:00:38.794Z,23.70
2019-03-28T06:03:08.731Z,25.85
2019-03-28T06:05:40.554Z,24.87
2019-03-28T06:08:11.702Z,25.30
2019-03-28T06:10:42.828Z,24.30
2019-03-28T06:13:14.110Z,24.35
2019-03-28T06:15:45.483Z,24.47
2019-03-28T06:18:16.670Z,23.42
2019-03-28T06:20:48.014Z,23.52
2019-03-28T06:23:19.299Z,24.30
2019-03-28T06:25:50.649Z,24.12
2019-03-28T06:28:21.999Z,24.20
2019-03-28T06:30:56.048Z,24.32
2019-03-28T06:33:27.257Z,23.98
2019-03-28T06:35:58.525Z,27.22
2019-03-28T06:38:29.832Z,25.80
2019-03-28T06:41:01.458Z,24.98
2019-03-28T06:43:33.564Z,25.65
2019-03-28T06:46:04.840Z,26.37
2019-03-28T06:48:36.034Z,25.27
2019-03-28T06:51:07.484Z,26.23
2019-03-28T06:53:38.685Z,24.72
2019-03-28T06:56:09.906Z,26.75
2019-03-28T06:58:42.879Z,25.02
2019-03-28T07:01:14.524Z,24.67
2019-03-28T07:03:47.486Z,24.37
2019-03-28T07:06:18.857Z,25.97
2019-03-28T07:08:50.125Z,25.02
2019-03-28T07:11:21.763Z,25.35
2019-03-28T07:13:53.145Z,24.60
2019-03-28T07:16:25.664Z,24.90
2019-03-28T07:18:56.856Z,26.45
2019-03-28T07:21:28.050Z,26.52
2019-03-28T07:23:59.815Z,25.55
2019-03-28T07:26:31.146Z,24.70
2019-03-28T07:29:02.934Z,25.72
2019-03-28T07:31:35.567Z,24.45
2019-03-28T07:34:07.090Z,24.40
2019-03-28T07:36:39.383Z,24.60
2019-03-28T07:39:11.242Z,25.92
2019-03-28T07:41:42.805Z,25.30
2019-03-28T07:44:14.876Z,24.63
2019-03-28T07:46:47.741Z,26.17
2019-03-28T07:49:20.034Z,23.98
2019-03-28T07:51:51.294Z,25.52
2019-03-28T07:54:24.344Z,26.07
2019-03-28T07:56:55.581Z,20.57
2019-03-28T07:59:26.815Z,25.72
2019-03-28T08:01:58.070Z,24.20
2019-03-28T08:04:29.302Z,25.45
2019-03-28T08:07:00.556Z,25.00
2019-03-28T08:09:36.738Z,25.62
2019-03-28T08:12:05.057Z,26.60
2019-03-28T08:14:36.362Z,24.95
2019-03-28T08:17:08.536Z,26.45
2019-03-28T08:19:41.554Z,25.25
2019-03-28T08:22:12.605Z,24.67
2019-03-28T08:24:43.777Z,26.55
2019-03-28T08:27:15.043Z,25.75
2019-03-28T08:29:46.240Z,25.85
2019-03-28T08:32:20.554Z,25.62
2019-03-28T08:34:51.957Z,26.73
2019-03-28T08:37:23.270Z,26.35
2019-03-28T08:39:55.700Z,26.68
2019-03-28T08:42:27.227Z,26.77
2019-03-28T08:44:58.419Z,26.80
2019-03-28T08:47:29.961Z,24.72
2019-03-28T08:50:01.225Z,26.00
2019-03-28T08:52:32.485Z,26.62
2019-03-28T08:55:04.204Z,26.15
2019-03-28T08:57:35.502Z,23.62
2019-03-28T09:00:09.383Z,26.68
2019-03-28T09:05:11.062Z,23.77
2019-03-28T09:07:42.529Z,22.90
2019-03-28T09:10:13.942Z,23.60
2019-03-28T09:12:45.168Z,22.48
2019-03-28T09:15:16.689Z,24.45
2019-03-28T09:17:47.907Z,22.60
2019-03-28T09:20:19.375Z,22.30
2019-03-28T09:22:51.942Z,23.18
2019-03-28T09:25:23.157Z,21.95
2019-03-28T09:27:54.469Z,21.40
2019-03-28T09:30:48.086Z,20.17
2019-03-28T09:33:10.943Z,19.02
2019-03-28T09:35:42.180Z,19.92
2019-03-28T09:38:13.756Z,19.92
2019-03-28T09:40:44.966Z,20.80
2019-03-28T09:43:16.177Z,19.60
2019-03-28T09:45:47.473Z,21.00
2019-03-28T09:48:18.780Z,21.15
2019-03-28T09:50:50.004Z,22.20
2019-03-28T09:53:21.332Z,21.60
2019-03-28T09:55:52.605Z,19.85
2019-03-28T09:58:23.773Z,19.75
2019-03-28T10:01:02.917Z,19.98
2019-03-28T10:03:29.692Z,18.92
2019-03-28T10:06:00.888Z,20.02
2019-03-28T10:08:32.160Z,18.62
2019-03-28T10:11:03.418Z,19.25
2019-03-28T10:13:34.611Z,18.20
2019-03-28T10:16:06.084Z,19.57
2019-03-28T10:18:37.291Z,17.87
2019-03-28T10:21:08.669Z,20.70
2019-03-28T10:23:40.074Z,19.42
2019-03-28T10:26:11.186Z,17.65
2019-03-28T10:28:42.413Z,19.02
2019-03-28T10:31:16.608Z,19.15
2019-03-28T10:33:47.223Z,19.45
2019-03-28T10:36:18.765Z,20.40
2019-03-28T10:38:50.013Z,19.77
2019-03-28T10:41:21.497Z,20.50
2019-03-28T10:43:52.737Z,18.98
2019-03-28T10:46:23.984Z,18.23
2019-03-28T10:48:55.121Z,14.70
2019-03-28T10:51:26.367Z,16.20
2019-03-28T10:53:57.819Z,17.95
2019-03-28T10:56:29.005Z,18.02
2019-03-28T10:59:00.286Z,10.80
2019-03-28T11:01:47.611Z,11.10
2019-03-28T11:04:04.559Z,13.83
2019-03-28T11:06:35.674Z,13.45
2019-03-28T11:09:08.812Z,10.53
2019-03-28T11:11:39.987Z,13.13
2019-03-28T11:14:11.486Z,8.93
2019-03-28T11:16:42.728Z,8.40
2019-03-28T11:19:15.723Z,7.03
2019-03-28T11:21:47.021Z,7.50
2019-03-28T11:24:18.205Z,5.20
2019-03-28T11:26:49.754Z,7.92
2019-03-28T11:29:21.009Z,6.08
2019-03-28T11:31:52.744Z,5.55
2019-03-28T11:34:24.040Z,4.78
2019-03-28T11:36:56.010Z,6.28
2019-03-28T11:39:27.539Z,5.03
2019-03-28T11:42:00.517Z,4.80
2019-03-28T11:44:31.802Z,4.72
2019-03-28T11:47:03.128Z,3.80
2019-03-28T11:49:34.388Z,3.90
2019-03-28T11:52:05.724Z,4.60
2019-03-28T11:54:36.936Z,3.60
2019-03-28T11:57:08.222Z,3.40
2019-03-28T11:59:39.757Z,3.45
2019-03-28T12:02:19.751Z,2.80
2019-03-28T12:04:43.968Z,2.47
2019-03-28T12:07:15.209Z,2.50
2019-03-28T12:09:46.456Z,2.55
2019-03-28T12:12:17.638Z,2.77
2019-03-28T12:14:48.936Z,3.45
2019-03-28T12:17:20.492Z,3.58
2019-03-28T12:19:51.752Z,3.15
2019-03-28T12:22:22.902Z,3.20
2019-03-28T12:24:54.140Z,2.85
2019-03-28T12:27:25.441Z,3.70
2019-03-28T12:29:56.565Z,3.58
2019-03-28T12:32:27.787Z,4.20
2019-03-28T12:34:58.978Z,4.30
2019-03-28T12:37:30.080Z,4.83
2019-03-28T12:40:01.311Z,5.33
2019-03-28T12:42:32.568Z,6.00
2019-03-28T12:45:03.895Z,5.97
2019-03-28T12:47:42.193Z,5.60
2019-03-28T12:50:10.853Z,5.87
2019-03-28T12:52:41.993Z,6.15
2019-03-28T12:55:13.440Z,7.15
2019-03-28T12:57:44.670Z,7.30
2019-03-28T13:00:16.187Z,7.25
2019-03-28T13:02:47.295Z,7.05
2019-03-28T13:05:18.642Z,7.42
2019-03-28T13:07:49.895Z,8.35
2019-03-28T13:10:21.149Z,9.28
2019-03-28T13:12:52.393Z,8.20
2019-03-28T13:15:23.802Z,9.05
2019-03-28T13:17:55.113Z,9.50
2019-03-28T13:20:27.758Z,9.90
2019-03-28T13:22:58.930Z,9.95
2019-03-28T13:25:30.478Z,9.60
2019-03-28T13:28:02.713Z,9.90
2019-03-28T13:30:34.970Z,11.10
2019-03-28T13:33:06.725Z,9.30
2019-03-28T13:35:37.934Z,11.10
2019-03-28T13:38:09.148Z,11.05
2019-03-28T13:40:40.380Z,11.57
2019-03-28T13:43:11.503Z,9.58
2019-03-28T13:45:43.413Z,10.72
2019-03-28T13:48:14.645Z,9.35
2019-03-28T13:50:46.177Z,10.15
2019-03-28T13:53:17.263Z,9.55
2019-03-28T13:55:48.429Z,10.18
2019-03-28T13:58:20.459Z,6.97
2019-03-28T14:00:54.419Z,7.60
2019-03-28T14:03:24.894Z,9.10
2019-03-28T14:05:56.065Z,8.45
2019-03-28T14:08:28.732Z,7.92
2019-03-28T14:10:59.912Z,7.67
2019-03-28T14:13:31.765Z,8.35
2019-03-28T14:16:02.950Z,8.50
2019-03-28T14:18:34.228Z,7.85
2019-03-28T14:21:05.467Z,7.75
2019-03-28T14:23:36.676Z,6.70
2019-03-28T14:26:07.905Z,6.00
2019-03-28T14:28:39.374Z,5.55
2019-03-28T14:31:10.834Z,5.85
2019-03-28T14:33:42.163Z,5.22
2019-03-28T14:36:14.050Z,5.58
2019-03-28T14:38:45.636Z,5.10
2019-03-28T14:41:16.909Z,4.53
2019-03-28T14:43:48.112Z,4.87
2019-03-28T14:46:19.316Z,4.95
2019-03-28T14:48:50.675Z,5.30
2019-03-28T14:51:21.925Z,5.33
2019-03-28T14:53:53.338Z,5.95
2019-03-28T14:56:25.001Z,5.37
2019-03-28T14:58:59.011Z,5.65
2019-03-28T15:01:30.664Z,5.25
2019-03-28T15:04:02.172Z,5.35
2019-03-28T15:06:33.492Z,5.85
2019-03-28T15:09:05.972Z,5.75
2019-03-28T15:11:37.241Z,6.15
2019-03-28T15:14:08.407Z,5.87
2019-03-28T15:16:39.898Z,5.72
2019-03-28T15:19:11.521Z,5.40
2019-03-28T15:21:42.718Z,5.92
2019-03-28T15:24:13.876Z,6.20
2019-03-28T15:26:45.195Z,6.47
2019-03-28T15:29:16.803Z,6.37
2019-03-28T15:31:48.400Z,7.42
2019-03-28T15:34:19.608Z,6.85
2019-03-28T15:36:51.148Z,6.25
2019-03-28T15:39:22.467Z,6.45
2019-03-28T15:41:54.149Z,6.00
2019-03-28T15:44:25.318Z,6.42
2019-03-28T15:46:56.490Z,6.60
2019-03-28T15:49:27.930Z,7.33
2019-03-28T15:51:59.475Z,7.50
2019-03-28T15:54:30.663Z,7.15
2019-03-28T15:57:01.944Z,7.67
2019-03-28T15:59:33.112Z,6.75
2019-03-28T16:02:04.664Z,9.15
2019-03-28T16:04:36.225Z,8.08
2019-03-28T16:07:07.815Z,7.62
2019-03-28T16:09:39.214Z,7.47
2019-03-28T16:12:10.508Z,7.70
2019-03-28T16:14:42.213Z,8.05
2019-03-28T16:17:13.557Z,7.90
2019-03-28T16:19:45.213Z,7.50
2019-03-28T16:22:16.519Z,8.20
2019-03-28T16:24:47.778Z,7.72
2019-03-28T16:27:19.569Z,8.18
2019-03-28T16:29:54.218Z,8.65
2019-03-28T16:32:24.184Z,8.68
2019-03-28T16:34:55.403Z,8.33
2019-03-28T16:37:27.702Z,8.60
2019-03-28T16:39:59.213Z,8.30
2019-03-28T16:42:30.415Z,8.95
2019-03-28T16:45:01.591Z,9.15
2019-03-28T16:47:33.341Z,8.45
2019-03-28T16:50:08.206Z,9.98
2019-03-28T16:52:39.471Z,9.23
2019-03-28T16:55:10.673Z,9.10
2019-03-28T16:57:42.618Z,10.25
2019-03-28T17:00:15.013Z,9.53
2019-03-28T17:02:46.728Z,9.55
2019-03-28T17:05:17.992Z,8.73
2019-03-28T17:07:51.634Z,9.40
2019-03-28T17:10:46.800Z,8.83
2019-03-28T17:13:18.745Z,9.75
2019-03-28T17:15:51.030Z,10.05
2019-03-28T17:18:22.729Z,10.38
2019-03-28T17:20:53.942Z,9.40
2019-03-28T17:23:25.245Z,9.00
2019-03-28T17:25:56.813Z,9.23
2019-03-28T17:28:28.027Z,10.75
2019-03-28T17:30:59.390Z,9.58
2019-03-28T17:33:31.909Z,9.48
2019-03-28T17:36:03.514Z,11.37
2019-03-28T17:38:34.659Z,10.32
2019-03-28T17:41:06.626Z,11.33
2019-03-28T17:43:38.076Z,11.05
2019-03-28T17:46:12.175Z,11.03
2019-03-28T17:48:42.312Z,11.70
2019-03-28T17:51:13.849Z,11.28
2019-03-28T17:53:45.692Z,11.43
2019-03-28T17:56:17.327Z,11.97
2019-03-28T17:58:48.578Z,11.45
2019-03-28T18:01:20.420Z,11.73
2019-03-28T18:03:51.751Z,12.03
2019-03-28T18:06:23.025Z,11.93
2019-03-28T18:08:55.340Z,12.55
2019-03-28T18:11:26.967Z,12.78
2019-03-28T18:13:58.581Z,13.60
2019-03-28T18:16:29.822Z,12.78
2019-03-28T18:19:01.319Z,13.60
2019-03-28T18:21:32.904Z,13.05
2019-03-28T18:24:04.642Z,13.62
2019-03-28T18:26:35.934Z,14.20
2019-03-28T18:29:07.272Z,13.22
2019-03-28T18:31:49.654Z,13.18
2019-03-28T18:34:12.672Z,13.17
2019-03-28T18:36:47.145Z,14.30
2019-03-28T18:39:17.172Z,13.68
2019-03-28T18:41:48.445Z,13.62
2019-03-28T18:44:19.680Z,14.30
2019-03-28T18:46:51.775Z,13.48
2019-03-28T18:49:23.375Z,14.33
2019-03-28T18:51:54.610Z,13.98
2019-03-28T18:54:25.902Z,13.65
2019-03-28T18:56:57.273Z,14.95
2019-03-28T18:59:28.717Z,13.38
2019-03-28T19:01:59.852Z,13.80
2019-03-28T19:04:31.129Z,14.28
2019-03-28T19:07:02.299Z,13.72
2019-03-28T19:09:33.637Z,13.48
2019-03-28T19:12:04.710Z,12.70
2019-03-28T19:14:35.960Z,12.65
2019-03-28T19:17:07.842Z,14.05
2019-03-28T19:19:39.894Z,11.78
2019-03-28T19:22:11.150Z,11.65
2019-03-28T19:24:42.795Z,11.65
2019-03-28T19:27:14.494Z,10.15
2019-03-28T19:29:46.036Z,10.50
2019-03-28T19:32:17.251Z,9.63
2019-03-28T19:34:48.570Z,11.22
2019-03-28T19:37:22.722Z,11.22
2019-03-28T19:39:52.818Z,10.30
2019-03-28T19:42:24.123Z,10.03
2019-03-28T19:44:55.738Z,10.28
2019-03-28T19:47:28.556Z,10.23
2019-03-28T19:49:59.975Z,10.53
2019-03-28T19:52:31.348Z,10.68
2019-03-28T19:55:02.810Z,10.08
2019-03-28T19:57:33.947Z,10.65
2019-03-28T20:00:05.674Z,10.63
2019-03-28T20:02:37.519Z,9.23
2019-03-28T20:05:09.311Z,8.83
2019-03-28T20:07:40.638Z,10.28
2019-03-28T20:10:16.635Z,8.65
2019-03-28T20:12:44.797Z,8.90
2019-03-28T20:15:15.975Z,8.33
2019-03-28T20:17:48.063Z,8.48
2019-03-28T20:20:19.481Z,8.28
2019-03-28T20:22:50.640Z,8.70
2019-03-28T20:25:21.902Z,8.58
2019-03-28T20:27:53.112Z,8.35
2019-03-28T20:30:24.919Z,8.08
2019-03-28T20:32:56.208Z,9.03
2019-03-28T20:35:27.340Z,7.83
2019-03-28T20:37:58.586Z,8.60
2019-03-28T20:40:29.934Z,8.13
2019-03-28T20:43:01.240Z,7.67
2019-03-28T20:45:32.615Z,8.38
2019-03-28T20:48:03.955Z,8.00
2019-03-28T20:50:35.249Z,7.08
2019-03-28T20:53:06.460Z,8.35
2019-03-28T20:55:38.093Z,8.45
2019-03-28T20:58:09.851Z,7.58
2019-03-28T21:00:46.794Z,7.83
2019-03-28T21:03:18.633Z,8.25
2019-03-28T21:05:49.958Z,9.23
2019-03-28T21:08:21.100Z,8.48
2019-03-28T21:10:52.741Z,8.08
2019-03-28T21:13:23.984Z,8.50
2019-03-28T21:15:55.210Z,8.33
2019-03-28T21:18:26.912Z,8.75
2019-03-28T21:20:58.235Z,8.55
2019-03-28T21:23:29.441Z,8.65
2019-03-28T21:26:01.189Z,9.25
2019-03-28T21:28:32.367Z,8.35
2019-03-28T21:31:03.865Z,10.03
2019-03-28T21:33:36.191Z,8.25
2019-03-28T21:36:07.470Z,8.43
2019-03-28T21:38:38.679Z,8.78
2019-03-28T21:41:09.931Z,9.33
2019-03-28T21:43:42.813Z,9.15
2019-03-28T21:46:15.195Z,9.23
2019-03-28T21:48:46.485Z,9.30
2019-03-28T21:51:20.052Z,9.33
2019-03-28T21:56:22.657Z,9.28
2019-03-28T21:58:55.326Z,9.48
2019-03-28T22:01:26.635Z,9.58
2019-03-28T22:03:58.497Z,10.45
2019-03-28T22:06:42.316Z,9.10
2019-03-28T22:09:04.353Z,9.78
2019-03-28T22:11:36.513Z,8.93
2019-03-28T22:14:07.734Z,9.70
2019-03-28T22:16:39.587Z,10.25
2019-03-28T22:19:10.723Z,9.45
2019-03-28T22:21:42.779Z,9.15
2019-03-28T22:24:14.085Z,9.35
2019-03-28T22:26:46.361Z,9.08
2019-03-28T22:29:17.815Z,9.98
2019-03-28T22:31:49.160Z,9.40
2019-03-28T22:34:20.534Z,11.25
2019-03-28T22:36:57.433Z,9.45
2019-03-28T22:39:24.792Z,10.03
2019-03-28T22:41:56.029Z,9.05
2019-03-28T22:44:27.405Z,10.05
2019-03-28T22:46:58.639Z,9.18
2019-03-28T22:49:30.095Z,10.60
2019-03-28T22:52:01.733Z,9.90
2019-03-28T22:54:33.017Z,10.95
2019-03-28T22:57:04.288Z,9.78
2019-03-28T22:59:35.557Z,10.48
2019-03-28T23:02:06.963Z,10.20
2019-03-28T23:04:39.347Z,9.50
2019-03-28T23:07:11.811Z,9.48
2019-03-28T23:09:43.204Z,10.82
2019-03-28T23:12:15.659Z,10.82
2019-03-28T23:14:46.914Z,10.88
2019-03-28T23:17:18.120Z,10.95
2019-03-28T23:19:49.367Z,10.45
2019-03-28T23:22:20.868Z,10.48
2019-03-28T23:24:52.133Z,10.55
2019-03-28T23:27:23.432Z,10.18
2019-03-28T23:29:55.054Z,10.60
2019-03-28T23:32:26.281Z,10.03
2019-03-28T23:34:57.806Z,10.28
2019-03-28T23:37:29.316Z,11.10
2019-03-28T23:40:00.780Z,11.35
2019-03-28T23:42:32.019Z,10.98
2019-03-28T23:45:03.257Z,10.88
2019-03-28T23:47:34.473Z,10.82
2019-03-28T23:50:06.975Z,10.53
2019-03-28T23:52:38.306Z,11.33
2019-03-28T23:55:09.931Z,12.23
2019-03-28T23:57:41.516Z,11.78
